Pandora, Texas
Current Conditions -  °F | °C
As of 9:35 AM on Monday 24 Nov 2014 (Local Time) from KT20 Reporting Station
Clear Clear  
Wind Chill: 57°   Ceiling: Unl
Heat Index: 57°   Visibility: 10mi
Dew Point: 39°   Wind: 9mph
Humidity: 50%   Direction: 330°NNW
Pressure: 30.1"   Gusts: NA
Location:  29.25°N, 97.84°W
Report Text: KT20 241535Z AUTO 33008KT 10SM CLR 14/04 A3010 RMK AO2 T01410038
Loading
Personal Weather Stations






























Interactive Weather Map New forecast layout! Learn more

10-Day Weather Forecast

Advertisements
Track Severe Weather on mobile